Dieringer, Washington
Current Conditions -  °F | °C
As of 12:58 PM on Thursday 23 Oct 2014 (Local Time) from KTCM Reporting Station
Clear Clear  
Wind Chill: 56°   Ceiling: Unl
Heat Index: 56°   Visibility: 10mi
Dew Point: 50°   Wind: 10mph
Humidity: 79%   Direction: 190°S
Pressure: 29.84"   Gusts: NA
Location:  47.2018°N, 122.233°W
Report Text: KTCM 231958Z AUTO 19009KT 10SM CLR 14/10 A2984 RMK AO2 SLP108 T01350099 $
Loading
Personal Weather Stations






























Interactive Weather Map
Tropical Storm Tracking
New forecast layout! Learn more

10-Day Weather Forecast

Advertisements
Track Severe Weather on mobile